Park, Virginia
Current Conditions -  °F | °C
As of 6:55 PM on Sunday 23 Nov 2014 (Local Time) from KW13 Reporting Station
Overcast Overcast  
Wind Chill: 40°   Ceiling: 700
Heat Index: 44°   Visibility: 3mi
Dew Point: 43°   Wind: 7mph
Humidity: 97%   Direction: 100°E
Pressure: 29.97"   Gusts: NA
Location:  38.0936°N, 78.8951°W
Report Text: KW13 232355Z AUTO 10006KT 3SM OVC007 07/06 A2997 RMK AO1 P0001 60001 T00670062 10145 20067
Loading
Personal Weather Stations






























Interactive Weather Map New forecast layout! Learn more

10-Day Weather Forecast

Advertisements
Track Severe Weather on mobile